createdAt,value
2022-07-30T00:09:49.367Z,68.2
2022-07-30T00:24:12.877Z,69.9
2022-07-30T00:38:39.559Z,70.9
2022-07-30T00:53:05.499Z,71.3
2022-07-30T01:07:33.103Z,72.9
2022-07-30T01:22:01.512Z,73.3
2022-07-30T01:36:28.852Z,75.4
2022-07-30T01:50:56.082Z,75.3
2022-07-30T02:05:23.095Z,78.5
2022-07-30T02:19:52.262Z,76.4
2022-07-30T02:34:19.118Z,76.5
2022-07-30T02:48:46.586Z,78.6
2022-07-30T03:03:16.378Z,78.4
2022-07-30T03:17:43.706Z,79.6
2022-07-30T03:32:18.655Z,80.2
2022-07-30T03:46:51.549Z,82.7
2022-07-30T04:01:14.678Z,79.2
2022-07-30T04:16:42.412Z,80.3
2022-07-30T04:30:45.673Z,79.4
2022-07-30T04:45:14.105Z,81.5
2022-07-30T04:59:46.666Z,83
2022-07-30T05:14:18.453Z,82.3
2022-07-30T05:28:45.762Z,82.3
2022-07-30T05:43:16.810Z,82.7
2022-07-30T05:57:45.439Z,80.7
2022-07-30T06:12:14.429Z,81.6
2022-07-30T06:26:43.656Z,80
2022-07-30T06:41:12.310Z,78.8
2022-07-30T06:55:47.766Z,76.6
2022-07-30T07:10:17.658Z,75.6
2022-07-30T07:24:42.069Z,75.4
2022-07-30T07:39:17.438Z,64.2
2022-07-30T07:54:22.740Z,54.1
2022-07-30T08:08:37.315Z,53.5
2022-07-30T08:23:08.672Z,51.5
2022-07-30T08:37:37.645Z,50.2
2022-07-30T08:52:05.497Z,51.8
2022-07-30T09:06:32.694Z,48.3
2022-07-30T09:20:55.184Z,47.2
2022-07-30T09:35:22.220Z,47.7
2022-07-30T09:49:47.440Z,47.7
2022-07-30T10:04:16.337Z,46.6
2022-07-30T10:18:44.584Z,45.1
2022-07-30T10:33:40.356Z,45.9
2022-07-30T10:47:51.367Z,44.9
2022-07-30T11:02:19.951Z,46.5
2022-07-30T11:16:47.885Z,43.8
2022-07-30T11:31:14.517Z,42.5
2022-07-30T11:45:38.192Z,44.8
2022-07-30T12:00:06.374Z,42.4
2022-07-30T12:14:35.626Z,43.3
2022-07-30T12:29:04.504Z,42
2022-07-30T12:43:30.985Z,40.9
2022-07-30T12:58:07.370Z,42.3
2022-07-30T13:12:30.681Z,38.7
2022-07-30T13:26:57.408Z,38.9
2022-07-30T13:41:25.925Z,36.2
2022-07-30T13:55:52.569Z,35.5
2022-07-30T14:10:21.801Z,35.9
2022-07-30T14:24:48.461Z,36
2022-07-30T14:39:16.205Z,36.2
2022-07-30T14:53:47.465Z,37.9
2022-07-30T15:08:11.227Z,37.9
2022-07-30T15:22:39.832Z,37.3
2022-07-30T15:37:08.775Z,37.3
2022-07-30T15:51:35.932Z,37.7
2022-07-30T16:06:03.399Z,37.5
2022-07-30T16:20:31.349Z,38.2
2022-07-30T16:34:57.644Z,39
2022-07-30T16:49:25.437Z,39.8
2022-07-30T17:03:52.097Z,40.1
2022-07-30T17:18:19.917Z,40.5
2022-07-30T17:32:47.485Z,40.5
2022-07-30T17:47:16.694Z,40.6
2022-07-30T18:01:41.676Z,41.4
2022-07-30T18:16:09.020Z,43.4
2022-07-30T18:30:36.005Z,43.6
2022-07-30T18:45:03.783Z,43.7
2022-07-30T18:59:30.683Z,43.7
2022-07-30T19:13:58.289Z,44.6
2022-07-30T19:28:26.048Z,45.5
2022-07-30T19:42:56.746Z,45.6
2022-07-30T19:57:21.263Z,47.1
2022-07-30T20:11:48.361Z,47.9
2022-07-30T20:26:15.688Z,48.6
2022-07-30T20:40:42.977Z,48.4
2022-07-30T20:55:09.355Z,50.9
2022-07-30T21:09:52.700Z,49.9
2022-07-30T21:24:12.393Z,52.1
2022-07-30T21:38:42.755Z,53.9
2022-07-30T21:53:09.149Z,54.5
2022-07-30T22:07:36.118Z,55.7
2022-07-30T22:22:29.424Z,55.6
2022-07-30T22:36:48.832Z,56.2
2022-07-30T22:51:14.622Z,57.4
2022-07-30T23:05:56.713Z,58
2022-07-30T23:20:14.249Z,57.5
2022-07-30T23:34:42.082Z,58.2
2022-07-30T23:49:10.337Z,59.7
